sensor_id;sensor_type;location;lat;lon;timestamp;P1;durP1;ratioP1;P2;durP2;ratioP2
2712;SDS011;1366;47.988;7.856;2023-02-25T05:01:10;7.40;;;5.83;;
2712;SDS011;1366;47.988;7.856;2023-02-25T05:03:37;8.87;;;6.33;;
2712;SDS011;1366;47.988;7.856;2023-02-25T05:06:04;8.17;;;7.37;;
2712;SDS011;1366;47.988;7.856;2023-02-25T05:08:30;7.40;;;5.90;;
2712;SDS011;1366;47.988;7.856;2023-02-25T05:10:57;7.47;;;6.77;;
2712;SDS011;1366;47.988;7.856;2023-02-25T05:13:23;7.20;;;6.00;;
2712;SDS011;1366;47.988;7.856;2023-02-25T05:15:49;8.93;;;6.00;;
2712;SDS011;1366;47.988;7.856;2023-02-25T05:18:15;9.10;;;6.40;;
2712;SDS011;1366;47.988;7.856;2023-02-25T05:20:42;7.40;;;6.60;;
2712;SDS011;1366;47.988;7.856;2023-02-25T05:23:08;7.50;;;6.73;;
2712;SDS011;1366;47.988;7.856;2023-02-25T05:25:34;6.90;;;6.00;;
2712;SDS011;1366;47.988;7.856;2023-02-25T05:28:08;9.47;;;6.43;;
2712;SDS011;1366;47.988;7.856;2023-02-25T05:30:35;7.40;;;6.50;;
2712;SDS011;1366;47.988;7.856;2023-02-25T05:33:02;10.57;;;6.30;;
2712;SDS011;1366;47.988;7.856;2023-02-25T05:35:29;8.60;;;6.20;;
2712;SDS011;1366;47.988;7.856;2023-02-25T05:37:56;7.43;;;5.80;;
2712;SDS011;1366;47.988;7.856;2023-02-25T05:40:22;6.93;;;5.83;;
2712;SDS011;1366;47.988;7.856;2023-02-25T05:42:48;6.50;;;5.90;;
2712;SDS011;1366;47.988;7.856;2023-02-25T05:45:14;7.40;;;5.63;;
2712;SDS011;1366;47.988;7.856;2023-02-25T05:47:42;7.50;;;6.40;;
2712;SDS011;1366;47.988;7.856;2023-02-25T05:50:08;7.77;;;5.90;;
2712;SDS011;1366;47.988;7.856;2023-02-25T05:52:34;8.13;;;6.37;;
2712;SDS011;1366;47.988;7.856;2023-02-25T05:55:00;7.73;;;6.10;;
2712;SDS011;1366;47.988;7.856;2023-02-25T05:57:27;7.80;;;6.27;;
2712;SDS011;1366;47.988;7.856;2023-02-25T05:59:53;9.13;;;6.23;;
2712;SDS011;1366;47.988;7.856;2023-02-25T06:02:19;7.27;;;6.20;;
2712;SDS011;1366;47.988;7.856;2023-02-25T06:04:45;7.17;;;5.90;;
2712;SDS011;1366;47.988;7.856;2023-02-25T06:07:12;7.43;;;6.10;;
2712;SDS011;1366;47.988;7.856;2023-02-25T06:09:38;7.10;;;6.23;;
2712;SDS011;1366;47.988;7.856;2023-02-25T06:12:04;7.27;;;6.57;;
2712;SDS011;1366;47.988;7.856;2023-02-25T06:14:30;8.07;;;6.30;;
2712;SDS011;1366;47.988;7.856;2023-02-25T06:16:56;8.40;;;6.00;;
2712;SDS011;1366;47.988;7.856;2023-02-25T06:19:22;6.20;;;5.60;;
2712;SDS011;1366;47.988;7.856;2023-02-25T06:21:50;6.50;;;5.87;;
2712;SDS011;1366;47.988;7.856;2023-02-25T06:24:17;7.07;;;5.40;;
2712;SDS011;1366;47.988;7.856;2023-02-25T06:26:43;7.90;;;5.67;;
2712;SDS011;1366;47.988;7.856;2023-02-25T06:29:09;7.47;;;6.00;;
2712;SDS011;1366;47.988;7.856;2023-02-25T06:31:35;8.70;;;6.03;;
2712;SDS011;1366;47.988;7.856;2023-02-25T06:34:01;8.33;;;5.70;;
2712;SDS011;1366;47.988;7.856;2023-02-25T06:36:28;7.13;;;5.87;;
2712;SDS011;1366;47.988;7.856;2023-02-25T06:38:54;7.50;;;6.30;;
2712;SDS011;1366;47.988;7.856;2023-02-25T06:41:20;8.40;;;5.97;;
2712;SDS011;1366;47.988;7.856;2023-02-25T06:43:47;8.57;;;6.60;;
2712;SDS011;1366;47.988;7.856;2023-02-25T06:46:16;7.80;;;7.00;;
2712;SDS011;1366;47.988;7.856;2023-02-25T06:48:43;8.00;;;7.10;;
2712;SDS011;1366;47.988;7.856;2023-02-25T06:51:09;8.13;;;7.00;;
2712;SDS011;1366;47.988;7.856;2023-02-25T06:53:40;9.07;;;6.57;;
2712;SDS011;1366;47.988;7.856;2023-02-25T06:56:07;10.03;;;7.20;;
2712;SDS011;1366;47.988;7.856;2023-02-25T06:58:34;7.90;;;6.30;;
2712;SDS011;1366;47.988;7.856;2023-02-25T07:01:03;8.17;;;6.40;;
2712;SDS011;1366;47.988;7.856;2023-02-25T07:03:29;6.73;;;6.00;;
2712;SDS011;1366;47.988;7.856;2023-02-25T07:05:56;7.70;;;6.07;;
2712;SDS011;1366;47.988;7.856;2023-02-25T07:08:22;6.83;;;5.53;;
2712;SDS011;1366;47.988;7.856;2023-02-25T07:10:48;7.57;;;5.70;;
2712;SDS011;1366;47.988;7.856;2023-02-25T07:13:14;7.23;;;5.37;;
2712;SDS011;1366;47.988;7.856;2023-02-25T07:15:40;7.50;;;5.43;;
2712;SDS011;1366;47.988;7.856;2023-02-25T07:18:06;7.50;;;5.43;;
2712;SDS011;1366;47.988;7.856;2023-02-25T07:20:32;5.93;;;5.30;;
2712;SDS011;1366;47.988;7.856;2023-02-25T07:23:00;10.37;;;5.70;;
2712;SDS011;1366;47.988;7.856;2023-02-25T07:25:26;7.20;;;5.17;;
2712;SDS011;1366;47.988;7.856;2023-02-25T07:27:52;7.07;;;5.10;;
2712;SDS011;1366;47.988;7.856;2023-02-25T07:30:19;6.77;;;4.90;;
2712;SDS011;1366;47.988;7.856;2023-02-25T07:32:45;8.10;;;5.33;;
2712;SDS011;1366;47.988;7.856;2023-02-25T07:35:11;8.13;;;6.20;;
2712;SDS011;1366;47.988;7.856;2023-02-25T07:37:37;9.97;;;7.10;;
2712;SDS011;1366;47.988;7.856;2023-02-25T07:40:06;7.90;;;6.90;;
2712;SDS011;1366;47.988;7.856;2023-02-25T07:42:37;8.40;;;6.57;;
2712;SDS011;1366;47.988;7.856;2023-02-25T07:45:03;7.00;;;6.23;;
2712;SDS011;1366;47.988;7.856;2023-02-25T07:47:29;9.13;;;6.03;;
2712;SDS011;1366;47.988;7.856;2023-02-25T07:49:55;6.87;;;5.27;;
2712;SDS011;1366;47.988;7.856;2023-02-25T07:52:21;6.57;;;5.07;;
2712;SDS011;1366;47.988;7.856;2023-02-25T07:54:47;7.10;;;4.00;;
2712;SDS011;1366;47.988;7.856;2023-02-25T07:57:13;5.23;;;3.80;;
2712;SDS011;1366;47.988;7.856;2023-02-25T07:59:39;4.53;;;4.10;;
2712;SDS011;1366;47.988;7.856;2023-02-25T08:02:05;4.67;;;4.20;;
2712;SDS011;1366;47.988;7.856;2023-02-25T08:04:34;5.40;;;4.10;;
2712;SDS011;1366;47.988;7.856;2023-02-25T08:07:00;4.50;;;3.70;;
2712;SDS011;1366;47.988;7.856;2023-02-25T08:09:26;5.07;;;4.20;;
2712;SDS011;1366;47.988;7.856;2023-02-25T08:11:52;4.90;;;4.20;;
2712;SDS011;1366;47.988;7.856;2023-02-25T08:14:18;5.27;;;4.07;;
2712;SDS011;1366;47.988;7.856;2023-02-25T08:16:46;3.93;;;3.40;;
2712;SDS011;1366;47.988;7.856;2023-02-25T08:19:12;5.97;;;4.10;;
2712;SDS011;1366;47.988;7.856;2023-02-25T08:21:38;5.00;;;3.37;;
2712;SDS011;1366;47.988;7.856;2023-02-25T08:24:07;5.70;;;3.67;;
2712;SDS011;1366;47.988;7.856;2023-02-25T08:26:33;7.23;;;3.77;;
2712;SDS011;1366;47.988;7.856;2023-02-25T08:28:59;4.27;;;3.90;;
2712;SDS011;1366;47.988;7.856;2023-02-25T08:31:25;4.00;;;3.70;;
2712;SDS011;1366;47.988;7.856;2023-02-25T08:33:51;5.23;;;3.00;;
2712;SDS011;1366;47.988;7.856;2023-02-25T08:36:19;4.43;;;3.03;;
2712;SDS011;1366;47.988;7.856;2023-02-25T08:38:45;3.87;;;3.47;;
2712;SDS011;1366;47.988;7.856;2023-02-25T08:41:11;4.80;;;3.13;;
2712;SDS011;1366;47.988;7.856;2023-02-25T08:43:37;4.03;;;3.63;;
2712;SDS011;1366;47.988;7.856;2023-02-25T08:46:05;3.50;;;3.10;;
2712;SDS011;1366;47.988;7.856;2023-02-25T08:48:31;6.33;;;3.07;;
2712;SDS011;1366;47.988;7.856;2023-02-25T08:51:07;5.10;;;3.70;;
2712;SDS011;1366;47.988;7.856;2023-02-25T08:53:37;4.10;;;3.53;;
2712;SDS011;1366;47.988;7.856;2023-02-25T08:56:04;6.50;;;2.90;;
2712;SDS011;1366;47.988;7.856;2023-02-25T08:58:30;3.10;;;2.70;;
2712;SDS011;1366;47.988;7.856;2023-02-25T09:00:56;3.83;;;2.90;;
2712;SDS011;1366;47.988;7.856;2023-02-25T09:03:23;2.83;;;2.40;;
2712;SDS011;1366;47.988;7.856;2023-02-25T09:05:53;3.83;;;2.60;;
2712;SDS011;1366;47.988;7.856;2023-02-25T09:08:20;6.07;;;3.40;;
2712;SDS011;1366;47.988;7.856;2023-02-25T09:10:46;3.40;;;3.10;;
2712;SDS011;1366;47.988;7.856;2023-02-25T09:13:12;2.93;;;2.67;;
2712;SDS011;1366;47.988;7.856;2023-02-25T09:15:38;4.20;;;2.73;;
2712;SDS011;1366;47.988;7.856;2023-02-25T09:18:04;4.50;;;2.80;;
2712;SDS011;1366;47.988;7.856;2023-02-25T09:20:31;3.70;;;2.60;;
2712;SDS011;1366;47.988;7.856;2023-02-25T09:22:58;3.90;;;2.50;;
2712;SDS011;1366;47.988;7.856;2023-02-25T09:25:24;4.23;;;2.73;;
2712;SDS011;1366;47.988;7.856;2023-02-25T09:27:51;3.83;;;2.43;;
2712;SDS011;1366;47.988;7.856;2023-02-25T09:30:17;2.50;;;2.13;;
2712;SDS011;1366;47.988;7.856;2023-02-25T09:32:43;3.73;;;2.07;;
2712;SDS011;1366;47.988;7.856;2023-02-25T09:35:09;3.90;;;2.53;;
2712;SDS011;1366;47.988;7.856;2023-02-25T09:37:36;3.53;;;2.20;;
2712;SDS011;1366;47.988;7.856;2023-02-25T09:40:03;4.40;;;2.00;;
2712;SDS011;1366;47.988;7.856;2023-02-25T09:42:40;6.00;;;2.23;;
2712;SDS011;1366;47.988;7.856;2023-02-25T09:45:12;3.33;;;2.27;;
2712;SDS011;1366;47.988;7.856;2023-02-25T09:47:56;2.40;;;2.17;;
2712;SDS011;1366;47.988;7.856;2023-02-25T09:53:04;2.50;;;2.10;;
2712;SDS011;1366;47.988;7.856;2023-02-25T09:55:32;2.37;;;2.17;;
2712;SDS011;1366;47.988;7.856;2023-02-25T10:00:28;2.00;;;1.90;;
2712;SDS011;1366;47.988;7.856;2023-02-25T10:02:58;5.13;;;2.47;;
2712;SDS011;1366;47.988;7.856;2023-02-25T10:05:27;3.13;;;2.83;;
2712;SDS011;1366;47.988;7.856;2023-02-25T10:10:32;2.60;;;2.40;;
2712;SDS011;1366;47.988;7.856;2023-02-25T10:20:59;2.57;;;2.30;;
2712;SDS011;1366;47.988;7.856;2023-02-25T10:26:05;3.40;;;2.20;;
2712;SDS011;1366;47.988;7.856;2023-02-25T10:28:37;4.10;;;2.10;;
2712;SDS011;1366;47.988;7.856;2023-02-25T10:31:06;6.23;;;2.10;;
2712;SDS011;1366;47.988;7.856;2023-02-25T10:33:34;4.80;;;2.23;;
2712;SDS011;1366;47.988;7.856;2023-02-25T10:38:30;4.00;;;2.33;;
2712;SDS011;1366;47.988;7.856;2023-02-25T10:40:56;2.90;;;2.00;;
2712;SDS011;1366;47.988;7.856;2023-02-25T10:43:24;2.60;;;2.00;;
2712;SDS011;1366;47.988;7.856;2023-02-25T10:45:59;2.50;;;2.30;;
2712;SDS011;1366;47.988;7.856;2023-02-25T10:48:26;4.57;;;1.97;;
2712;SDS011;1366;47.988;7.856;2023-02-25T10:51:06;3.30;;;2.80;;
2712;SDS011;1366;47.988;7.856;2023-02-25T10:53:36;2.47;;;2.27;;
2712;SDS011;1366;47.988;7.856;2023-02-25T10:56:02;2.20;;;2.00;;
2712;SDS011;1366;47.988;7.856;2023-02-25T10:58:45;3.00;;;2.30;;
2712;SDS011;1366;47.988;7.856;2023-02-25T11:01:23;4.70;;;2.20;;
2712;SDS011;1366;47.988;7.856;2023-02-25T11:03:59;2.77;;;2.23;;
2712;SDS011;1366;47.988;7.856;2023-02-25T11:06:27;5.33;;;2.53;;
2712;SDS011;1366;47.988;7.856;2023-02-25T11:08:54;2.67;;;1.87;;
2712;SDS011;1366;47.988;7.856;2023-02-25T11:11:26;1.90;;;1.67;;
2712;SDS011;1366;47.988;7.856;2023-02-25T11:14:02;4.33;;;2.00;;
2712;SDS011;1366;47.988;7.856;2023-02-25T11:16:29;2.17;;;1.80;;
2712;SDS011;1366;47.988;7.856;2023-02-25T11:18:57;1.80;;;1.70;;
2712;SDS011;1366;47.988;7.856;2023-02-25T11:21:28;2.10;;;1.83;;
2712;SDS011;1366;47.988;7.856;2023-02-25T11:23:54;3.50;;;2.07;;
2712;SDS011;1366;47.988;7.856;2023-02-25T11:26:32;2.57;;;1.80;;
2712;SDS011;1366;47.988;7.856;2023-02-25T11:28:59;2.17;;;1.97;;
2712;SDS011;1366;47.988;7.856;2023-02-25T11:31:32;2.00;;;1.80;;
2712;SDS011;1366;47.988;7.856;2023-02-25T11:34:00;2.03;;;1.70;;
2712;SDS011;1366;47.988;7.856;2023-02-25T11:36:35;2.60;;;1.90;;
2712;SDS011;1366;47.988;7.856;2023-02-25T11:39:03;2.20;;;2.00;;
2712;SDS011;1366;47.988;7.856;2023-02-25T11:41:30;2.90;;;2.70;;
2712;SDS011;1366;47.988;7.856;2023-02-25T11:43:56;3.00;;;1.87;;
2712;SDS011;1366;47.988;7.856;2023-02-25T11:46:23;2.90;;;2.00;;
2712;SDS011;1366;47.988;7.856;2023-02-25T11:48:53;2.57;;;2.17;;
2712;SDS011;1366;47.988;7.856;2023-02-25T11:56:24;5.37;;;2.67;;
2712;SDS011;1366;47.988;7.856;2023-02-25T12:22:40;3.50;;;2.37;;
2712;SDS011;1366;47.988;7.856;2023-02-25T12:27:50;3.17;;;2.20;;
2712;SDS011;1366;47.988;7.856;2023-02-25T12:30:35;3.00;;;2.70;;
2712;SDS011;1366;47.988;7.856;2023-02-25T12:33:13;3.43;;;2.37;;
2712;SDS011;1366;47.988;7.856;2023-02-25T12:35:48;3.40;;;2.50;;
2712;SDS011;1366;47.988;7.856;2023-02-25T12:51:43;3.57;;;2.60;;
2712;SDS011;1366;47.988;7.856;2023-02-25T12:54:27;2.67;;;2.47;;
2712;SDS011;1366;47.988;7.856;2023-02-25T12:57:02;4.87;;;2.70;;
2712;SDS011;1366;47.988;7.856;2023-02-25T13:05:19;4.37;;;2.60;;
2712;SDS011;1366;47.988;7.856;2023-02-25T13:08:02;2.97;;;2.30;;
2712;SDS011;1366;47.988;7.856;2023-02-25T13:16:24;4.43;;;2.70;;
2712;SDS011;1366;47.988;7.856;2023-02-25T13:26:18;2.93;;;2.73;;
2712;SDS011;1366;47.988;7.856;2023-02-25T13:33:56;4.70;;;2.77;;
2712;SDS011;1366;47.988;7.856;2023-02-25T13:36:35;3.30;;;2.70;;
2712;SDS011;1366;47.988;7.856;2023-02-25T13:39:24;3.90;;;2.70;;
2712;SDS011;1366;47.988;7.856;2023-02-25T13:47:30;3.43;;;2.87;;
2712;SDS011;1366;47.988;7.856;2023-02-25T13:58:01;2.73;;;2.33;;
2712;SDS011;1366;47.988;7.856;2023-02-25T14:06:01;2.20;;;2.00;;
2712;SDS011;1366;47.988;7.856;2023-02-25T14:08:36;2.40;;;2.10;;
2712;SDS011;1366;47.988;7.856;2023-02-25T14:11:19;4.20;;;2.57;;
2712;SDS011;1366;47.988;7.856;2023-02-25T14:13:51;6.23;;;2.47;;
2712;SDS011;1366;47.988;7.856;2023-02-25T14:16:32;3.07;;;2.33;;
2712;SDS011;1366;47.988;7.856;2023-02-25T14:27:10;2.33;;;2.00;;
2712;SDS011;1366;47.988;7.856;2023-02-25T14:32:20;3.23;;;2.30;;
2712;SDS011;1366;47.988;7.856;2023-02-25T14:35:07;3.53;;;2.20;;
2712;SDS011;1366;47.988;7.856;2023-02-25T14:48:09;2.03;;;1.70;;
2712;SDS011;1366;47.988;7.856;2023-02-25T14:50:45;2.20;;;2.00;;
2712;SDS011;1366;47.988;7.856;2023-02-25T14:55:50;3.07;;;2.67;;
2712;SDS011;1366;47.988;7.856;2023-02-25T15:00:52;3.50;;;2.27;;
2712;SDS011;1366;47.988;7.856;2023-02-25T15:06:12;2.17;;;2.07;;
2712;SDS011;1366;47.988;7.856;2023-02-25T15:09:28;1.80;;;1.70;;
2712;SDS011;1366;47.988;7.856;2023-02-25T15:21:43;2.13;;;1.93;;
2712;SDS011;1366;47.988;7.856;2023-02-25T15:26:56;2.63;;;1.90;;
2712;SDS011;1366;47.988;7.856;2023-02-25T15:37:22;2.13;;;1.97;;
2712;SDS011;1366;47.988;7.856;2023-02-25T15:39:53;3.83;;;2.37;;
2712;SDS011;1366;47.988;7.856;2023-02-25T15:47:49;2.37;;;2.17;;
2712;SDS011;1366;47.988;7.856;2023-02-25T15:53:05;3.30;;;2.43;;
2712;SDS011;1366;47.988;7.856;2023-02-25T15:55:34;4.80;;;2.80;;
2712;SDS011;1366;47.988;7.856;2023-02-25T15:58:00;2.20;;;2.00;;
2712;SDS011;1366;47.988;7.856;2023-02-25T16:01:08;3.50;;;2.27;;
2712;SDS011;1366;47.988;7.856;2023-02-25T16:08:36;2.87;;;2.67;;
2712;SDS011;1366;47.988;7.856;2023-02-25T16:11:04;4.07;;;2.90;;
2712;SDS011;1366;47.988;7.856;2023-02-25T16:13:32;2.73;;;2.50;;
2712;SDS011;1366;47.988;7.856;2023-02-25T16:15:59;3.10;;;2.80;;
2712;SDS011;1366;47.988;7.856;2023-02-25T16:20:53;3.13;;;2.47;;
2712;SDS011;1366;47.988;7.856;2023-02-25T16:23:22;4.70;;;2.87;;
2712;SDS011;1366;47.988;7.856;2023-02-25T16:30:55;3.67;;;3.03;;
2712;SDS011;1366;47.988;7.856;2023-02-25T16:33:40;2.87;;;2.50;;
2712;SDS011;1366;47.988;7.856;2023-02-25T16:36:10;3.70;;;2.60;;
2712;SDS011;1366;47.988;7.856;2023-02-25T16:41:05;2.60;;;2.40;;
2712;SDS011;1366;47.988;7.856;2023-02-25T16:43:31;5.40;;;3.07;;
2712;SDS011;1366;47.988;7.856;2023-02-25T16:46:05;5.00;;;3.07;;
2712;SDS011;1366;47.988;7.856;2023-02-25T16:48:44;3.77;;;3.40;;
2712;SDS011;1366;47.988;7.856;2023-02-25T16:51:21;3.70;;;3.03;;
2712;SDS011;1366;47.988;7.856;2023-02-25T16:53:49;4.27;;;3.77;;
2712;SDS011;1366;47.988;7.856;2023-02-25T16:56:20;5.20;;;4.80;;
2712;SDS011;1366;47.988;7.856;2023-02-25T16:59:03;12.50;;;7.90;;
2712;SDS011;1366;47.988;7.856;2023-02-25T17:01:30;11.70;;;9.47;;
2712;SDS011;1366;47.988;7.856;2023-02-25T17:06:43;9.23;;;5.37;;
2712;SDS011;1366;47.988;7.856;2023-02-25T17:09:22;4.87;;;4.00;;
2712;SDS011;1366;47.988;7.856;2023-02-25T17:11:52;6.20;;;3.60;;
2712;SDS011;1366;47.988;7.856;2023-02-25T17:14:19;3.60;;;3.30;;
2712;SDS011;1366;47.988;7.856;2023-02-25T17:16:45;5.57;;;3.67;;
2712;SDS011;1366;47.988;7.856;2023-02-25T17:19:12;3.90;;;3.50;;
2712;SDS011;1366;47.988;7.856;2023-02-25T17:21:40;5.23;;;3.67;;
2712;SDS011;1366;47.988;7.856;2023-02-25T17:24:12;4.90;;;3.10;;
2712;SDS011;1366;47.988;7.856;2023-02-25T17:26:39;4.40;;;3.30;;
2712;SDS011;1366;47.988;7.856;2023-02-25T17:29:08;6.77;;;5.10;;
2712;SDS011;1366;47.988;7.856;2023-02-25T17:31:37;7.27;;;6.53;;
2712;SDS011;1366;47.988;7.856;2023-02-25T17:34:10;9.70;;;7.30;;
2712;SDS011;1366;47.988;7.856;2023-02-25T17:36:37;10.13;;;6.27;;
2712;SDS011;1366;47.988;7.856;2023-02-25T17:39:10;9.47;;;6.90;;
2712;SDS011;1366;47.988;7.856;2023-02-25T17:41:37;14.60;;;7.20;;
2712;SDS011;1366;47.988;7.856;2023-02-25T17:44:08;7.93;;;5.30;;
2712;SDS011;1366;47.988;7.856;2023-02-25T17:46:34;6.93;;;5.90;;
2712;SDS011;1366;47.988;7.856;2023-02-25T17:51:59;5.00;;;4.30;;
2712;SDS011;1366;47.988;7.856;2023-02-25T17:54:27;5.60;;;4.60;;
2712;SDS011;1366;47.988;7.856;2023-02-25T17:56:54;5.40;;;4.20;;
2712;SDS011;1366;47.988;7.856;2023-02-25T18:01:58;6.20;;;5.60;;
2712;SDS011;1366;47.988;7.856;2023-02-25T18:04:38;12.60;;;8.83;;
2712;SDS011;1366;47.988;7.856;2023-02-25T18:09:53;10.80;;;7.83;;
2712;SDS011;1366;47.988;7.856;2023-02-25T18:12:23;11.63;;;7.90;;
2712;SDS011;1366;47.988;7.856;2023-02-25T18:14:52;8.73;;;7.07;;
2712;SDS011;1366;47.988;7.856;2023-02-25T18:19:45;7.17;;;5.57;;
2712;SDS011;1366;47.988;7.856;2023-02-25T18:25:30;5.83;;;5.30;;
2712;SDS011;1366;47.988;7.856;2023-02-25T18:27:56;9.13;;;5.30;;
2712;SDS011;1366;47.988;7.856;2023-02-25T18:30:23;6.40;;;4.60;;
2712;SDS011;1366;47.988;7.856;2023-02-25T18:32:50;5.73;;;5.03;;
2712;SDS011;1366;47.988;7.856;2023-02-25T18:35:16;5.73;;;5.23;;
2712;SDS011;1366;47.988;7.856;2023-02-25T18:37:43;8.40;;;5.20;;
2712;SDS011;1366;47.988;7.856;2023-02-25T18:40:21;4.63;;;4.10;;
2712;SDS011;1366;47.988;7.856;2023-02-25T18:42:48;7.80;;;4.83;;
2712;SDS011;1366;47.988;7.856;2023-02-25T18:45:15;6.07;;;4.17;;
2712;SDS011;1366;47.988;7.856;2023-02-25T18:47:41;6.10;;;3.87;;
2712;SDS011;1366;47.988;7.856;2023-02-25T18:50:07;5.10;;;4.70;;
2712;SDS011;1366;47.988;7.856;2023-02-25T18:52:33;7.43;;;5.90;;
2712;SDS011;1366;47.988;7.856;2023-02-25T18:55:00;6.97;;;6.30;;
2712;SDS011;1366;47.988;7.856;2023-02-25T18:57:26;8.80;;;6.77;;
2712;SDS011;1366;47.988;7.856;2023-02-25T18:59:55;9.03;;;6.60;;
2712;SDS011;1366;47.988;7.856;2023-02-25T19:04:53;10.00;;;7.83;;
2712;SDS011;1366;47.988;7.856;2023-02-25T19:07:19;10.90;;;7.93;;
2712;SDS011;1366;47.988;7.856;2023-02-25T19:09:45;13.17;;;9.27;;
2712;SDS011;1366;47.988;7.856;2023-02-25T19:12:12;11.17;;;8.30;;
2712;SDS011;1366;47.988;7.856;2023-02-25T19:14:39;9.70;;;7.13;;
2712;SDS011;1366;47.988;7.856;2023-02-25T19:17:05;12.10;;;9.47;;
2712;SDS011;1366;47.988;7.856;2023-02-25T19:19:32;12.60;;;8.43;;
2712;SDS011;1366;47.988;7.856;2023-02-25T19:21:58;10.73;;;7.90;;
2712;SDS011;1366;47.988;7.856;2023-02-25T19:24:24;6.90;;;6.00;;
2712;SDS011;1366;47.988;7.856;2023-02-25T19:26:50;7.80;;;6.07;;
2712;SDS011;1366;47.988;7.856;2023-02-25T19:29:16;7.17;;;6.20;;
2712;SDS011;1366;47.988;7.856;2023-02-25T19:31:43;7.27;;;5.33;;
2712;SDS011;1366;47.988;7.856;2023-02-25T19:34:10;8.37;;;5.23;;
2712;SDS011;1366;47.988;7.856;2023-02-25T19:36:36;5.23;;;4.70;;
2712;SDS011;1366;47.988;7.856;2023-02-25T19:39:02;6.20;;;5.60;;
2712;SDS011;1366;47.988;7.856;2023-02-25T19:41:28;8.00;;;5.20;;
2712;SDS011;1366;47.988;7.856;2023-02-25T19:43:54;6.90;;;5.33;;
2712;SDS011;1366;47.988;7.856;2023-02-25T19:46:20;10.40;;;6.43;;
2712;SDS011;1366;47.988;7.856;2023-02-25T19:48:46;8.33;;;6.17;;
2712;SDS011;1366;47.988;7.856;2023-02-25T19:51:12;8.20;;;6.47;;
2712;SDS011;1366;47.988;7.856;2023-02-25T19:53:39;8.40;;;6.40;;
2712;SDS011;1366;47.988;7.856;2023-02-25T19:56:05;7.63;;;5.60;;
2712;SDS011;1366;47.988;7.856;2023-02-25T19:58:32;6.73;;;5.90;;
2712;SDS011;1366;47.988;7.856;2023-02-25T20:01:02;6.70;;;6.00;;
2712;SDS011;1366;47.988;7.856;2023-02-25T20:03:29;6.60;;;6.00;;
2712;SDS011;1366;47.988;7.856;2023-02-25T20:05:55;7.87;;;6.23;;
2712;SDS011;1366;47.988;7.856;2023-02-25T20:08:21;5.87;;;5.37;;
2712;SDS011;1366;47.988;7.856;2023-02-25T20:10:47;6.80;;;4.97;;
2712;SDS011;1366;47.988;7.856;2023-02-25T20:13:13;7.07;;;5.90;;
2712;SDS011;1366;47.988;7.856;2023-02-25T20:15:39;5.57;;;4.97;;
2712;SDS011;1366;47.988;7.856;2023-02-25T20:18:05;6.70;;;5.63;;
2712;SDS011;1366;47.988;7.856;2023-02-25T20:20:31;6.20;;;5.60;;
2712;SDS011;1366;47.988;7.856;2023-02-25T20:22:57;7.00;;;5.97;;
2712;SDS011;1366;47.988;7.856;2023-02-25T20:25:23;8.33;;;5.30;;
2712;SDS011;1366;47.988;7.856;2023-02-25T20:27:49;7.57;;;6.27;;
2712;SDS011;1366;47.988;7.856;2023-02-25T20:30:15;5.97;;;5.47;;
2712;SDS011;1366;47.988;7.856;2023-02-25T20:32:42;9.00;;;5.80;;
2712;SDS011;1366;47.988;7.856;2023-02-25T20:35:10;6.90;;;5.43;;
2712;SDS011;1366;47.988;7.856;2023-02-25T20:37:39;6.67;;;6.07;;
2712;SDS011;1366;47.988;7.856;2023-02-25T20:40:09;5.90;;;5.40;;
2712;SDS011;1366;47.988;7.856;2023-02-25T20:42:35;7.80;;;6.00;;
2712;SDS011;1366;47.988;7.856;2023-02-25T20:45:02;5.77;;;5.27;;
2712;SDS011;1366;47.988;7.856;2023-02-25T20:47:29;6.43;;;5.77;;
2712;SDS011;1366;47.988;7.856;2023-02-25T20:49:58;5.90;;;4.70;;
2712;SDS011;1366;47.988;7.856;2023-02-25T20:52:24;6.00;;;5.40;;
2712;SDS011;1366;47.988;7.856;2023-02-25T20:54:51;7.90;;;6.10;;
2712;SDS011;1366;47.988;7.856;2023-02-25T20:57:18;7.53;;;5.10;;
2712;SDS011;1366;47.988;7.856;2023-02-25T20:59:44;7.43;;;5.30;;
2712;SDS011;1366;47.988;7.856;2023-02-25T21:02:12;9.50;;;6.07;;
2712;SDS011;1366;47.988;7.856;2023-02-25T21:04:38;10.90;;;5.53;;
2712;SDS011;1366;47.988;7.856;2023-02-25T21:07:04;6.67;;;5.30;;
2712;SDS011;1366;47.988;7.856;2023-02-25T21:09:31;7.50;;;5.30;;
2712;SDS011;1366;47.988;7.856;2023-02-25T21:11:57;8.40;;;6.57;;
2712;SDS011;1366;47.988;7.856;2023-02-25T21:14:23;9.93;;;6.03;;
2712;SDS011;1366;47.988;7.856;2023-02-25T21:16:50;8.43;;;6.13;;
2712;SDS011;1366;47.988;7.856;2023-02-25T21:19:18;6.37;;;5.70;;
2712;SDS011;1366;47.988;7.856;2023-02-25T21:21:45;10.60;;;6.90;;
2712;SDS011;1366;47.988;7.856;2023-02-25T21:24:11;7.40;;;6.60;;
2712;SDS011;1366;47.988;7.856;2023-02-25T21:26:39;8.10;;;6.70;;
2712;SDS011;1366;47.988;7.856;2023-02-25T21:29:05;6.73;;;6.10;;
2712;SDS011;1366;47.988;7.856;2023-02-25T21:31:31;7.07;;;5.83;;
2712;SDS011;1366;47.988;7.856;2023-02-25T21:34:00;8.20;;;5.97;;
2712;SDS011;1366;47.988;7.856;2023-02-25T21:36:27;7.50;;;5.13;;
2712;SDS011;1366;47.988;7.856;2023-02-25T21:38:53;4.43;;;4.07;;
2712;SDS011;1366;47.988;7.856;2023-02-25T21:41:20;4.83;;;4.00;;
2712;SDS011;1366;47.988;7.856;2023-02-25T21:43:46;4.93;;;4.17;;
2712;SDS011;1366;47.988;7.856;2023-02-25T21:46:13;5.20;;;4.70;;
2712;SDS011;1366;47.988;7.856;2023-02-25T21:48:40;6.97;;;4.10;;
2712;SDS011;1366;47.988;7.856;2023-02-25T21:51:06;5.27;;;3.77;;
2712;SDS011;1366;47.988;7.856;2023-02-25T21:53:38;4.43;;;3.80;;
2712;SDS011;1366;47.988;7.856;2023-02-25T21:56:11;5.13;;;3.60;;
2712;SDS011;1366;47.988;7.856;2023-02-25T21:58:37;4.43;;;3.30;;
2712;SDS011;1366;47.988;7.856;2023-02-25T22:01:11;5.23;;;3.43;;
2712;SDS011;1366;47.988;7.856;2023-02-25T22:03:37;5.40;;;3.40;;
2712;SDS011;1366;47.988;7.856;2023-02-25T22:06:03;4.00;;;3.13;;
2712;SDS011;1366;47.988;7.856;2023-02-25T22:08:29;4.03;;;3.20;;
2712;SDS011;1366;47.988;7.856;2023-02-25T22:10:55;3.53;;;3.20;;
2712;SDS011;1366;47.988;7.856;2023-02-25T22:13:21;5.93;;;3.13;;
2712;SDS011;1366;47.988;7.856;2023-02-25T22:15:48;8.10;;;3.20;;
2712;SDS011;1366;47.988;7.856;2023-02-25T22:18:14;3.00;;;2.63;;
2712;SDS011;1366;47.988;7.856;2023-02-25T22:20:40;4.03;;;2.87;;
2712;SDS011;1366;47.988;7.856;2023-02-25T22:23:06;2.87;;;2.67;;
2712;SDS011;1366;47.988;7.856;2023-02-25T22:25:32;3.37;;;2.80;;
2712;SDS011;1366;47.988;7.856;2023-02-25T22:27:58;4.33;;;2.67;;
2712;SDS011;1366;47.988;7.856;2023-02-25T22:30:24;3.00;;;2.70;;
2712;SDS011;1366;47.988;7.856;2023-02-25T22:32:50;2.33;;;2.13;;
2712;SDS011;1366;47.988;7.856;2023-02-25T22:35:16;2.93;;;2.40;;
2712;SDS011;1366;47.988;7.856;2023-02-25T22:37:42;3.07;;;2.53;;
2712;SDS011;1366;47.988;7.856;2023-02-25T22:40:09;3.73;;;2.60;;
2712;SDS011;1366;47.988;7.856;2023-02-25T22:42:35;3.13;;;2.40;;
2712;SDS011;1366;47.988;7.856;2023-02-25T22:45:01;2.20;;;2.10;;
2712;SDS011;1366;47.988;7.856;2023-02-25T22:47:27;3.43;;;3.10;;
2712;SDS011;1366;47.988;7.856;2023-02-25T22:49:53;2.50;;;2.30;;
2712;SDS011;1366;47.988;7.856;2023-02-25T22:52:19;2.80;;;2.60;;
2712;SDS011;1366;47.988;7.856;2023-02-25T22:54:45;3.40;;;2.50;;
2712;SDS011;1366;47.988;7.856;2023-02-25T22:57:11;2.43;;;2.23;;
2712;SDS011;1366;47.988;7.856;2023-02-25T22:59:37;3.40;;;2.70;;
